Time;durP1;ratioP1;P1;durP2;ratioP2;P2;SDS_P1;SDS_P2;PMS_P1;PMS_P2;Temp;Humidity;BMP_temperature;BMP_pressure;BME280_temperature;BME280_humidity;BME280_pressure;Samples;Min_cycle;Max_cycle;Signal;HPM_P1;HPM_P2
2023/06/06 00:01:23;;;;;;;3.75;1.60;;;;;;;;;;4983535;28;20038;-80
2023/06/06 00:03:51;;;;;;;3.83;1.67;;;;;;;;;;4991835;28;20117;-81
2023/06/06 00:06:20;;;;;;;3.35;1.27;;;;;;;;;;4961128;28;20089;-79
2023/06/06 00:08:47;;;;;;;3.60;1.40;;;;;;;;;;4992664;28;20075;-80
2023/06/06 00:11:13;;;;;;;4.20;1.33;;;;;;;;;;4963114;28;20460;-80
2023/06/06 00:13:40;;;;;;;3.13;1.40;;;;;;;;;;4979738;28;20050;-80
2023/06/06 00:16:06;;;;;;;2.88;1.40;;;;;;;;;;4990534;28;20037;-80
2023/06/06 00:18:32;;;;;;;3.33;1.48;;;;;;;;;;4984991;28;20114;-80
2023/06/06 00:20:58;;;;;;;3.40;1.58;;;;;;;;;;4965229;28;20439;-79
2023/06/06 00:23:23;;;;;;;3.03;1.30;;;;;;;;;;4969265;28;20052;-80
2023/06/06 00:25:50;;;;;;;3.80;1.40;;;;;;;;;;4990190;28;20042;-80
2023/06/06 00:28:16;;;;;;;4.30;1.40;;;;;;;;;;4991373;28;20388;-80
2023/06/06 00:30:42;;;;;;;3.63;1.30;;;;;;;;;;4948895;28;20118;-80
2023/06/06 00:33:10;;;;;;;2.70;1.20;;;;;;;;;;4984236;28;20064;-80
2023/06/06 00:35:38;;;;;;;3.88;1.52;;;;;;;;;;4992130;28;20030;-80
2023/06/06 00:38:03;;;;;;;4.97;1.80;;;;;;;;;;4992558;28;21035;-80
2023/06/06 00:40:29;;;;;;;2.80;1.33;;;;;;;;;;4982573;28;20037;-80
2023/06/06 00:42:54;;;;;;;3.03;1.30;;;;;;;;;;4991878;28;20065;-80
2023/06/06 00:45:21;;;;;;;3.63;1.40;;;;;;;;;;4995550;28;20045;-80
2023/06/06 00:47:46;;;;;;;2.83;1.30;;;;;;;;;;4979206;28;20038;-80
2023/06/06 00:50:13;;;;;;;3.25;1.25;;;;;;;;;;4998044;28;20126;-80
2023/06/06 00:52:40;;;;;;;3.75;1.60;;;;;;;;;;4967307;28;20141;-80
2023/06/06 00:55:06;;;;;;;3.53;1.40;;;;;;;;;;4995981;28;20034;-80
2023/06/06 00:57:51;;;;;;;4.05;1.50;;;;;;;;;;5008579;28;20057;-80
2023/06/06 01:00:17;;;;;;;3.30;1.45;;;;;;;;;;5010193;28;20037;-80
2023/06/06 01:02:47;;;;;;;5.20;1.52;;;;;;;;;;4983662;28;20088;-79
2023/06/06 01:05:15;;;;;;;4.35;1.50;;;;;;;;;;5010508;28;20041;-80
2023/06/06 01:07:51;;;;;;;3.75;1.50;;;;;;;;;;4991329;28;20034;-80
2023/06/06 01:10:17;;;;;;;4.72;1.50;;;;;;;;;;4985029;28;20494;-80
2023/06/06 01:13:17;;;;;;;3.65;1.30;;;;;;;;;;5002223;28;20084;-80
2023/06/06 01:15:45;;;;;;;3.85;1.30;;;;;;;;;;5006343;28;20047;-80
2023/06/06 01:18:12;;;;;;;4.68;1.73;;;;;;;;;;5015919;28;20053;-80
2023/06/06 01:20:39;;;;;;;4.07;1.30;;;;;;;;;;4974780;28;20033;-80
2023/06/06 01:23:05;;;;;;;4.97;1.38;;;;;;;;;;4996996;28;20515;-79
2023/06/06 01:25:34;;;;;;;4.38;1.88;;;;;;;;;;4983379;28;20088;-79
2023/06/06 01:28:00;;;;;;;2.90;1.30;;;;;;;;;;4997211;28;20342;-79
2023/06/06 01:30:26;;;;;;;2.78;1.23;;;;;;;;;;4986268;28;20049;-79
2023/06/06 01:32:55;;;;;;;3.17;1.60;;;;;;;;;;5014449;28;20064;-80
2023/06/06 01:35:39;;;;;;;4.43;1.75;;;;;;;;;;4995193;28;20777;-80
2023/06/06 01:38:19;;;;;;;4.40;1.42;;;;;;;;;;5014437;28;20033;-80
2023/06/06 01:40:46;;;;;;;3.15;1.20;;;;;;;;;;4978214;28;20030;-80
2023/06/06 01:43:12;;;;;;;3.50;1.40;;;;;;;;;;4997110;28;20049;-80
2023/06/06 01:45:38;;;;;;;3.40;1.40;;;;;;;;;;5003940;28;20492;-81
2023/06/06 01:48:04;;;;;;;3.33;1.70;;;;;;;;;;4997342;28;20613;-80
2023/06/06 01:50:32;;;;;;;3.17;1.60;;;;;;;;;;4980493;28;20118;-80
2023/06/06 01:52:58;;;;;;;2.83;1.23;;;;;;;;;;4997167;28;20042;-80
2023/06/06 01:55:23;;;;;;;5.75;1.42;;;;;;;;;;4985533;28;20072;-79
2023/06/06 01:57:49;;;;;;;3.47;1.50;;;;;;;;;;4988032;28;20112;-80
2023/06/06 02:00:16;;;;;;;3.63;1.40;;;;;;;;;;5015309;28;20152;-80
2023/06/06 02:02:42;;;;;;;3.25;1.40;;;;;;;;;;4995840;28;20037;-79
2023/06/06 02:05:07;;;;;;;3.10;1.42;;;;;;;;;;4999640;28;20591;-79
2023/06/06 02:07:34;;;;;;;3.75;1.60;;;;;;;;;;4982266;28;20069;-80
2023/06/06 02:10:04;;;;;;;2.83;1.37;;;;;;;;;;4988026;28;20038;-80
2023/06/06 02:12:30;;;;;;;3.38;1.65;;;;;;;;;;4993663;28;20280;-80
2023/06/06 02:14:55;;;;;;;3.25;1.52;;;;;;;;;;5013196;28;20507;-80
2023/06/06 02:17:21;;;;;;;2.95;1.42;;;;;;;;;;4981489;28;20156;-80
2023/06/06 02:19:46;;;;;;;5.18;1.40;;;;;;;;;;4986712;28;20489;-80
2023/06/06 02:22:13;;;;;;;2.75;1.40;;;;;;;;;;4965965;28;20069;-80
2023/06/06 02:24:40;;;;;;;3.78;1.58;;;;;;;;;;4993784;28;20392;-80
2023/06/06 02:27:14;;;;;;;6.70;1.48;;;;;;;;;;5002317;28;20030;-80
2023/06/06 02:29:40;;;;;;;2.88;1.33;;;;;;;;;;5000168;28;20046;-79
2023/06/06 02:32:06;;;;;;;3.03;1.38;;;;;;;;;;4994019;28;20049;-79
2023/06/06 02:34:31;;;;;;;4.50;1.70;;;;;;;;;;4998134;28;20099;-79
2023/06/06 02:36:57;;;;;;;4.05;1.50;;;;;;;;;;4994240;28;20068;-80
2023/06/06 02:39:25;;;;;;;3.88;1.80;;;;;;;;;;4995030;28;20044;-80
2023/06/06 02:41:51;;;;;;;3.63;1.58;;;;;;;;;;4994866;28;20045;-80
2023/06/06 02:44:17;;;;;;;3.95;1.75;;;;;;;;;;4983517;28;20555;-79
2023/06/06 02:46:43;;;;;;;3.10;1.48;;;;;;;;;;4981297;28;20143;-80
2023/06/06 02:49:09;;;;;;;3.28;1.42;;;;;;;;;;4989636;28;21816;-80
2023/06/06 02:51:36;;;;;;;3.25;1.50;;;;;;;;;;4982821;28;20161;-80
2023/06/06 02:54:02;;;;;;;6.60;1.65;;;;;;;;;;4981375;28;20026;-80
2023/06/06 02:56:28;;;;;;;3.92;1.40;;;;;;;;;;5011485;28;20037;-80
2023/06/06 02:58:53;;;;;;;4.97;1.45;;;;;;;;;;4982778;28;20030;-79
2023/06/06 03:01:20;;;;;;;4.88;1.60;;;;;;;;;;4994208;28;20033;-79
2023/06/06 03:03:46;;;;;;;5.32;1.77;;;;;;;;;;4994540;28;20037;-79
2023/06/06 03:06:12;;;;;;;5.10;1.67;;;;;;;;;;5003501;28;20053;-79
2023/06/06 03:08:43;;;;;;;4.28;1.40;;;;;;;;;;4997555;28;20073;-79
2023/06/06 03:11:09;;;;;;;4.22;1.70;;;;;;;;;;4993974;28;20035;-80
2023/06/06 03:13:35;;;;;;;4.47;1.42;;;;;;;;;;4996736;28;20048;-80
2023/06/06 03:16:01;;;;;;;3.78;2.00;;;;;;;;;;5010796;28;20729;-79
2023/06/06 03:18:26;;;;;;;2.92;1.40;;;;;;;;;;4987805;28;20040;-80
2023/06/06 03:20:53;;;;;;;3.60;1.40;;;;;;;;;;5011280;28;20049;-79
2023/06/06 03:23:19;;;;;;;4.07;1.38;;;;;;;;;;4998369;28;20037;-80
2023/06/06 03:25:45;;;;;;;5.88;1.50;;;;;;;;;;4999583;28;20037;-80
2023/06/06 03:28:11;;;;;;;5.90;2.00;;;;;;;;;;4994738;28;20148;-80
2023/06/06 03:30:37;;;;;;;3.80;1.38;;;;;;;;;;4976866;28;20033;-80
2023/06/06 03:33:06;;;;;;;3.83;1.45;;;;;;;;;;4987461;28;20042;-79
2023/06/06 03:35:32;;;;;;;3.72;1.45;;;;;;;;;;4970768;28;20041;-80
2023/06/06 03:37:58;;;;;;;3.15;1.30;;;;;;;;;;4993137;28;20088;-79
2023/06/06 03:40:24;;;;;;;3.55;1.45;;;;;;;;;;4967637;28;20571;-79
2023/06/06 03:42:50;;;;;;;3.45;1.42;;;;;;;;;;4980130;28;20109;-80
2023/06/06 03:45:16;;;;;;;3.80;1.45;;;;;;;;;;5011264;28;20038;-78
2023/06/06 03:47:42;;;;;;;3.97;1.40;;;;;;;;;;4997068;28;20030;-79
2023/06/06 03:50:08;;;;;;;4.03;1.80;;;;;;;;;;4993795;28;20040;-79
2023/06/06 03:52:33;;;;;;;4.07;1.80;;;;;;;;;;4999330;28;20041;-78
2023/06/06 03:54:59;;;;;;;3.70;1.65;;;;;;;;;;4992535;28;20068;-78
2023/06/06 03:57:25;;;;;;;4.68;1.80;;;;;;;;;;5011237;28;20037;-79
2023/06/06 03:59:50;;;;;;;3.97;1.60;;;;;;;;;;4981902;28;20033;-79
2023/06/06 04:02:18;;;;;;;3.70;1.67;;;;;;;;;;5011734;28;20069;-78
2023/06/06 04:04:44;;;;;;;3.28;1.45;;;;;;;;;;4973212;28;20037;-79
2023/06/06 04:07:10;;;;;;;3.85;1.60;;;;;;;;;;4999252;28;20159;-79
2023/06/06 04:09:35;;;;;;;5.43;1.73;;;;;;;;;;4992383;28;20416;-78
2023/06/06 04:12:02;;;;;;;3.30;1.50;;;;;;;;;;4993831;28;20029;-78
2023/06/06 04:14:27;;;;;;;3.42;1.40;;;;;;;;;;5011333;28;20045;-79
2023/06/06 04:16:53;;;;;;;4.40;1.80;;;;;;;;;;4980598;28;20511;-79
2023/06/06 04:19:21;;;;;;;4.05;1.65;;;;;;;;;;5011245;28;20084;-77
2023/06/06 04:21:47;;;;;;;3.35;1.45;;;;;;;;;;4991133;28;20061;-77
2023/06/06 04:24:12;;;;;;;3.65;1.52;;;;;;;;;;4979623;28;20129;-77
2023/06/06 04:26:38;;;;;;;6.25;1.77;;;;;;;;;;4991377;28;20037;-76
2023/06/06 04:29:03;;;;;;;3.50;1.65;;;;;;;;;;5011366;28;20053;-76
2023/06/06 04:31:29;;;;;;;3.15;1.50;;;;;;;;;;4999639;28;20034;-76
2023/06/06 04:33:57;;;;;;;3.70;1.77;;;;;;;;;;4992145;28;20113;-77
2023/06/06 04:36:26;;;;;;;5.20;1.73;;;;;;;;;;4974668;28;20065;-76
2023/06/06 04:38:51;;;;;;;5.15;2.10;;;;;;;;;;4994408;28;20500;-76
2023/06/06 04:41:19;;;;;;;4.10;1.83;;;;;;;;;;4993632;28;20037;-76
2023/06/06 04:43:50;;;;;;;4.28;1.83;;;;;;;;;;4993434;28;20029;-76
2023/06/06 04:46:21;;;;;;;4.30;1.60;;;;;;;;;;4991949;28;20121;-76
2023/06/06 04:48:53;;;;;;;6.90;1.85;;;;;;;;;;5010782;28;20050;-77
2023/06/06 04:51:20;;;;;;;5.32;1.88;;;;;;;;;;4983966;28;20563;-76
2023/06/06 04:53:46;;;;;;;5.53;1.67;;;;;;;;;;4993375;28;20416;-78
2023/06/06 04:56:11;;;;;;;3.53;1.40;;;;;;;;;;4998275;28;20050;-76
2023/06/06 04:58:38;;;;;;;4.10;1.73;;;;;;;;;;5010288;28;20046;-76
2023/06/06 05:01:07;;;;;;;3.47;1.35;;;;;;;;;;4996347;28;20033;-76
2023/06/06 05:03:33;;;;;;;4.65;1.80;;;;;;;;;;4996572;28;20088;-76
2023/06/06 05:05:58;;;;;;;3.08;1.67;;;;;;;;;;4995765;28;20033;-75
2023/06/06 05:08:24;;;;;;;4.18;1.60;;;;;;;;;;4992791;28;20042;-76
2023/06/06 05:10:52;;;;;;;5.57;1.77;;;;;;;;;;5000051;28;20183;-76
2023/06/06 05:13:17;;;;;;;5.47;2.00;;;;;;;;;;4986483;28;20370;-76
2023/06/06 05:15:43;;;;;;;4.22;2.00;;;;;;;;;;5002050;28;20034;-76
2023/06/06 05:18:08;;;;;;;4.25;1.75;;;;;;;;;;4991041;28;20040;-77
2023/06/06 05:20:34;;;;;;;5.25;2.20;;;;;;;;;;4975839;28;20032;-78
2023/06/06 05:23:00;;;;;;;7.70;1.90;;;;;;;;;;4991269;28;20389;-77
2023/06/06 05:25:28;;;;;;;6.40;1.90;;;;;;;;;;5008247;28;20130;-78
2023/06/06 05:27:56;;;;;;;4.35;1.83;;;;;;;;;;5002232;28;20065;-77
2023/06/06 05:30:21;;;;;;;5.28;2.00;;;;;;;;;;4976546;28;20041;-78
2023/06/06 05:32:47;;;;;;;7.07;1.95;;;;;;;;;;4980468;28;20042;-77
2023/06/06 05:35:12;;;;;;;4.05;1.73;;;;;;;;;;4991810;28;20461;-77
2023/06/06 05:37:38;;;;;;;5.20;1.80;;;;;;;;;;4979335;28;20052;-77
2023/06/06 05:40:24;;;;;;;3.28;1.63;;;;;;;;;;4992005;28;20069;-76
2023/06/06 05:42:49;;;;;;;3.47;1.65;;;;;;;;;;4940347;29;20504;-76
2023/06/06 05:45:14;;;;;;;4.22;1.58;;;;;;;;;;4920187;29;20043;-77
2023/06/06 05:47:40;;;;;;;4.70;1.80;;;;;;;;;;4925253;29;20046;-77
2023/06/06 05:50:06;;;;;;;5.38;1.90;;;;;;;;;;4923754;29;20048;-77
2023/06/06 05:52:35;;;;;;;3.65;1.83;;;;;;;;;;4939210;28;20039;-77
2023/06/06 05:55:05;;;;;;;4.53;1.70;;;;;;;;;;4907753;29;20102;-76
2023/06/06 05:57:31;;;;;;;6.05;2.15;;;;;;;;;;4938587;28;20071;-76
2023/06/06 06:00:00;;;;;;;5.03;1.80;;;;;;;;;;4940464;28;20077;-77
2023/06/06 06:02:28;;;;;;;4.28;1.83;;;;;;;;;;4932024;28;20098;-77
2023/06/06 06:04:56;;;;;;;4.07;1.52;;;;;;;;;;4943170;28;20466;-77
2023/06/06 06:07:22;;;;;;;6.25;1.90;;;;;;;;;;4914482;29;20159;-77
2023/06/06 06:09:50;;;;;;;5.18;2.00;;;;;;;;;;4917865;29;20043;-77
2023/06/06 06:12:16;;;;;;;3.85;1.88;;;;;;;;;;4925478;29;20043;-78
2023/06/06 06:14:41;;;;;;;4.32;1.80;;;;;;;;;;4911207;29;20046;-77
2023/06/06 06:17:06;;;;;;;6.47;2.05;;;;;;;;;;4906581;29;20458;-78
2023/06/06 06:19:32;;;;;;;4.22;1.75;;;;;;;;;;4951898;28;20061;-76
2023/06/06 06:21:58;;;;;;;4.70;2.03;;;;;;;;;;4982022;28;20411;-76
2023/06/06 06:24:23;;;;;;;4.57;1.83;;;;;;;;;;5011220;28;20034;-75
2023/06/06 06:26:51;;;;;;;6.65;1.98;;;;;;;;;;4979807;28;20041;-76
2023/06/06 06:29:16;;;;;;;4.45;2.05;;;;;;;;;;4997770;28;20819;-77
2023/06/06 06:32:02;;;;;;;3.67;1.70;;;;;;;;;;4982026;28;20123;-78
2023/06/06 06:34:27;;;;;;;4.32;1.73;;;;;;;;;;4913736;29;20628;-77
2023/06/06 06:36:53;;;;;;;8.00;1.85;;;;;;;;;;4885307;29;20032;-77
2023/06/06 06:39:21;;;;;;;4.53;1.80;;;;;;;;;;4914577;29;20503;-77
2023/06/06 06:41:46;;;;;;;4.95;1.90;;;;;;;;;;4900628;29;20300;-77
2023/06/06 06:44:15;;;;;;;5.50;1.90;;;;;;;;;;4906620;29;20042;-77
2023/06/06 06:46:40;;;;;;;6.35;2.40;;;;;;;;;;4913528;29;20044;-77
2023/06/06 06:49:16;;;;;;;5.20;2.03;;;;;;;;;;4912914;29;20388;-76
2023/06/06 06:51:41;;;;;;;5.53;1.95;;;;;;;;;;4911696;29;20215;-77
2023/06/06 06:54:10;;;;;;;4.72;2.00;;;;;;;;;;4900825;29;20040;-77
2023/06/06 06:56:36;;;;;;;4.05;1.95;;;;;;;;;;4899228;29;20455;-77
2023/06/06 06:59:03;;;;;;;3.60;1.70;;;;;;;;;;4901052;29;20086;-77
2023/06/06 07:01:29;;;;;;;6.13;2.70;;;;;;;;;;4904990;29;20048;-77
2023/06/06 07:03:54;;;;;;;4.15;1.80;;;;;;;;;;4904076;29;20044;-77
2023/06/06 07:06:22;;;;;;;8.30;2.03;;;;;;;;;;4912439;29;20071;-82
2023/06/06 07:08:49;;;;;;;5.32;2.45;;;;;;;;;;4904063;29;20562;-77
2023/06/06 07:11:14;;;;;;;8.80;1.98;;;;;;;;;;4949910;28;20038;-78
2023/06/06 07:13:39;;;;;;;5.22;1.60;;;;;;;;;;4981065;28;20081;-77
2023/06/06 07:16:05;;;;;;;4.10;1.92;;;;;;;;;;4985818;28;20116;-77
2023/06/06 07:18:30;;;;;;;4.15;2.13;;;;;;;;;;4997540;28;20088;-78
2023/06/06 07:20:56;;;;;;;46.75;8.73;;;;;;;;;;5011453;28;20036;-78
2023/06/06 07:23:21;;;;;;;9.00;2.83;;;;;;;;;;4985977;28;20061;-77
2023/06/06 07:25:47;;;;;;;5.78;2.05;;;;;;;;;;4976214;28;20106;-77
2023/06/06 07:28:13;;;;;;;10.63;2.97;;;;;;;;;;5011616;28;20041;-78
2023/06/06 07:30:39;;;;;;;6.55;2.13;;;;;;;;;;4995619;28;20065;-77
2023/06/06 07:33:04;;;;;;;5.20;2.22;;;;;;;;;;4996248;28;20469;-77
2023/06/06 07:35:32;;;;;;;5.45;1.90;;;;;;;;;;5010334;28;20144;-78
2023/06/06 07:37:59;;;;;;;6.13;1.92;;;;;;;;;;5012089;28;20061;-78
2023/06/06 07:40:24;;;;;;;4.50;1.80;;;;;;;;;;4983978;28;20069;-78
2023/06/06 07:42:50;;;;;;;4.95;1.98;;;;;;;;;;4990975;28;20513;-77
2023/06/06 07:45:16;;;;;;;5.60;2.40;;;;;;;;;;5003358;28;20044;-78
2023/06/06 07:47:41;;;;;;;4.15;1.73;;;;;;;;;;5011507;28;20038;-78
2023/06/06 07:50:12;;;;;;;4.72;2.30;;;;;;;;;;4980165;28;20423;-78
2023/06/06 07:52:43;;;;;;;3.65;1.88;;;;;;;;;;4982776;28;20112;-78
2023/06/06 07:55:09;;;;;;;5.30;1.63;;;;;;;;;;4993466;28;20530;-78
2023/06/06 07:57:34;;;;;;;4.63;2.08;;;;;;;;;;5010402;28;20037;-78
2023/06/06 08:00:00;;;;;;;6.65;1.95;;;;;;;;;;4986960;28;20052;-78
2023/06/06 08:02:26;;;;;;;4.63;2.13;;;;;;;;;;4971662;28;20069;-78
2023/06/06 08:04:57;;;;;;;3.55;1.70;;;;;;;;;;4992166;28;20511;-77
2023/06/06 08:07:22;;;;;;;9.48;2.10;;;;;;;;;;4979262;28;20034;-78
2023/06/06 08:09:48;;;;;;;4.88;2.08;;;;;;;;;;4994397;28;20373;-78
2023/06/06 08:12:13;;;;;;;6.30;2.03;;;;;;;;;;4976845;28;20489;-79
2023/06/06 08:14:39;;;;;;;8.10;2.03;;;;;;;;;;5010200;28;20040;-76
2023/06/06 08:17:05;;;;;;;7.03;2.03;;;;;;;;;;4962507;28;20044;-77
2023/06/06 08:19:49;;;;;;;4.47;1.93;;;;;;;;;;4984152;28;20405;-76
2023/06/06 08:22:15;;;;;;;5.65;2.30;;;;;;;;;;4991156;28;20144;-78
2023/06/06 08:24:43;;;;;;;4.55;1.90;;;;;;;;;;5011449;28;20117;-77
2023/06/06 08:27:10;;;;;;;7.35;2.30;;;;;;;;;;4991244;28;20029;-77
2023/06/06 08:29:43;;;;;;;5.50;2.10;;;;;;;;;;4995855;28;20539;-76
2023/06/06 08:32:08;;;;;;;5.88;2.08;;;;;;;;;;4985501;28;20122;-77
2023/06/06 08:34:34;;;;;;;6.68;2.17;;;;;;;;;;5009187;28;20060;-77
2023/06/06 08:37:00;;;;;;;6.43;2.30;;;;;;;;;;4992895;28;20033;-77
2023/06/06 08:39:25;;;;;;;7.05;2.28;;;;;;;;;;4978437;28;20041;-77
2023/06/06 08:42:01;;;;;;;6.60;2.30;;;;;;;;;;4999502;28;20347;-78
2023/06/06 08:44:26;;;;;;;7.18;2.50;;;;;;;;;;4998092;28;20040;-77
2023/06/06 08:46:56;;;;;;;3.95;1.98;;;;;;;;;;5001222;28;20067;-78
2023/06/06 08:49:21;;;;;;;6.18;2.42;;;;;;;;;;4993776;28;20451;-78
2023/06/06 08:51:48;;;;;;;5.43;2.17;;;;;;;;;;4976679;28;20030;-76
2023/06/06 08:54:13;;;;;;;3.90;2.08;;;;;;;;;;4996823;28;20045;-77
2023/06/06 08:56:44;;;;;;;4.95;2.38;;;;;;;;;;5008688;28;20134;-77
2023/06/06 08:59:10;;;;;;;4.13;2.10;;;;;;;;;;4993474;28;20349;-77
2023/06/06 09:01:37;;;;;;;6.10;2.30;;;;;;;;;;4995109;28;20033;-77
2023/06/06 09:04:03;;;;;;;4.50;2.45;;;;;;;;;;5009787;28;20107;-78
2023/06/06 09:06:29;;;;;;;6.05;2.17;;;;;;;;;;4978666;28;20495;-78
2023/06/06 09:08:55;;;;;;;4.55;2.20;;;;;;;;;;4980932;28;20038;-77
2023/06/06 09:11:21;;;;;;;4.88;1.90;;;;;;;;;;4996124;28;20034;-80
2023/06/06 09:14:07;;;;;;;6.80;2.30;;;;;;;;;;4994567;28;20499;-77
2023/06/06 09:16:35;;;;;;;4.15;2.45;;;;;;;;;;4921846;29;20509;-77
2023/06/06 09:19:02;;;;;;;6.68;2.20;;;;;;;;;;4923527;29;20044;-77
2023/06/06 09:21:29;;;;;;;3.83;2.05;;;;;;;;;;4894827;29;20056;-77
2023/06/06 09:23:56;;;;;;;;;;;;;;;;;;4903675;29;20126;-78
2023/06/06 09:26:21;;;;;;;6.23;2.10;;;;;;;;;;4877158;29;19923;-79
2023/06/06 09:28:53;;;;;;;5.55;2.25;;;;;;;;;;4900041;29;20288;-78
2023/06/06 09:31:27;;;;;;;4.05;2.35;;;;;;;;;;4901378;29;20130;-78
2023/06/06 09:33:57;;;;;;;4.78;2.20;;;;;;;;;;4903966;29;20050;-80
2023/06/06 09:36:27;;;;;;;4.68;2.08;;;;;;;;;;4909197;29;20086;-78
2023/06/06 09:39:13;;;;;;;4.90;2.00;;;;;;;;;;4922412;29;20043;-78
2023/06/06 09:41:46;;;;;;;6.15;2.15;;;;;;;;;;4918634;29;20445;-78
2023/06/06 09:44:21;;;;;;;6.10;2.15;;;;;;;;;;4903941;29;20084;-78
2023/06/06 09:46:57;;;;;;;7.00;2.30;;;;;;;;;;4911469;29;20048;-77
2023/06/06 09:49:23;;;;;;;4.25;2.10;;;;;;;;;;4918489;29;20072;-78
2023/06/06 09:51:52;;;;;;;5.80;2.38;;;;;;;;;;4920160;29;20205;-78
2023/06/06 09:54:17;;;;;;;4.20;2.25;;;;;;;;;;4977120;28;20509;-79
2023/06/06 09:56:46;;;;;;;5.47;2.58;;;;;;;;;;5011869;28;20033;-79
2023/06/06 09:59:13;;;;;;;4.28;2.03;;;;;;;;;;4988870;28;20115;-78
2023/06/06 10:01:40;;;;;;;4.00;2.15;;;;;;;;;;5010435;28;20029;-78
2023/06/06 10:04:07;;;;;;;3.63;2.10;;;;;;;;;;4991261;28;20057;-78
2023/06/06 10:06:38;;;;;;;6.90;2.30;;;;;;;;;;4982584;28;20901;-77
2023/06/06 10:09:05;;;;;;;5.65;2.28;;;;;;;;;;4994010;28;20049;-78
2023/06/06 10:11:36;;;;;;;6.00;2.15;;;;;;;;;;4991003;28;20044;-80
2023/06/06 10:14:03;;;;;;;4.10;2.08;;;;;;;;;;4998524;28;20863;-78
2023/06/06 10:16:29;;;;;;;4.07;2.38;;;;;;;;;;5002230;28;20045;-78
2023/06/06 10:18:56;;;;;;;11.73;2.37;;;;;;;;;;4976550;28;20069;-77
2023/06/06 10:21:22;;;;;;;4.47;2.70;;;;;;;;;;4994719;28;20272;-78
2023/06/06 10:23:50;;;;;;;3.67;2.08;;;;;;;;;;4988582;28;20030;-77
2023/06/06 10:26:21;;;;;;;3.50;1.80;;;;;;;;;;4980524;28;20034;-77
2023/06/06 10:29:00;;;;;;;4.20;1.88;;;;;;;;;;4999325;28;20124;-78
2023/06/06 10:31:35;;;;;;;4.57;1.70;;;;;;;;;;4982094;28;20033;-78
2023/06/06 10:34:06;;;;;;;4.35;1.85;;;;;;;;;;5008565;28;20046;-83
2023/06/06 10:36:40;;;;;;;4.03;2.00;;;;;;;;;;4983368;28;20165;-86
2023/06/06 10:39:19;;;;;;;3.60;1.75;;;;;;;;;;4984328;28;20389;-84
2023/06/06 10:42:00;;;;;;;;;;;;;;;;;;;;;
2023/06/06 10:44:26;;;;;;;4.50;2.00;;;;;;;;;;5007338;28;20594;-84
2023/06/06 10:47:12;;;;;;;4.38;1.90;;;;;;;;;;5006670;28;20302;-85
2023/06/06 10:49:37;;;;;;;3.65;1.92;;;;;;;;;;5007632;28;20153;-83
2023/06/06 10:52:06;;;;;;;3.55;1.80;;;;;;;;;;4968035;28;20048;-84
2023/06/06 10:54:34;;;;;;;4.22;2.05;;;;;;;;;;4979866;28;20037;-83
2023/06/06 10:56:59;;;;;;;4.35;2.13;;;;;;;;;;4992715;28;20030;-77
2023/06/06 10:59:31;;;;;;;5.70;2.25;;;;;;;;;;5003527;28;20044;-77
2023/06/06 11:01:57;;;;;;;4.43;2.10;;;;;;;;;;4994204;28;20334;-77
2023/06/06 11:04:30;;;;;;;4.47;2.10;;;;;;;;;;4994268;28;20079;-77
2023/06/06 11:07:00;;;;;;;5.93;2.40;;;;;;;;;;4980903;28;20045;-77
2023/06/06 11:09:34;;;;;;;4.57;2.33;;;;;;;;;;4994125;28;20549;-77
2023/06/06 11:12:11;;;;;;;5.97;2.45;;;;;;;;;;4964727;28;20466;-77
2023/06/06 11:14:55;;;;;;;4.43;2.28;;;;;;;;;;5002870;28;20038;-77
2023/06/06 11:17:24;;;;;;;5.50;2.70;;;;;;;;;;4987844;28;20645;-77
2023/06/06 11:19:51;;;;;;;7.30;2.20;;;;;;;;;;4993704;28;20517;-77
2023/06/06 11:22:24;;;;;;;3.90;2.13;;;;;;;;;;4994022;28;20383;-77
2023/06/06 11:24:50;;;;;;;5.28;2.45;;;;;;;;;;5011452;28;20117;-77
2023/06/06 11:27:17;;;;;;;5.20;2.35;;;;;;;;;;4992423;28;20049;-77
2023/06/06 11:29:43;;;;;;;5.35;2.50;;;;;;;;;;5012140;28;20034;-77
2023/06/06 11:32:12;;;;;;;6.03;2.47;;;;;;;;;;4978617;28;20059;-77
2023/06/06 11:34:58;;;;;;;4.45;2.03;;;;;;;;;;4982556;28;20477;-78
2023/06/06 11:37:25;;;;;;;4.27;2.07;;;;;;;;;;4917110;29;20419;-77
2023/06/06 11:39:51;;;;;;;3.83;2.00;;;;;;;;;;4932129;29;20920;-77
2023/06/06 11:42:17;;;;;;;3.45;1.90;;;;;;;;;;4930245;29;20039;-77
2023/06/06 11:44:43;;;;;;;3.92;2.13;;;;;;;;;;4933777;29;20498;-77
2023/06/06 11:47:11;;;;;;;4.25;2.30;;;;;;;;;;4917944;29;20102;-77
2023/06/06 11:49:46;;;;;;;5.78;2.33;;;;;;;;;;4920229;29;20050;-77
2023/06/06 11:52:15;;;;;;;4.30;2.00;;;;;;;;;;4916873;29;20043;-77
2023/06/06 11:54:51;;;;;;;4.45;2.25;;;;;;;;;;4917488;29;20882;-77
2023/06/06 11:57:17;;;;;;;4.60;2.13;;;;;;;;;;4908150;29;20043;-77
2023/06/06 11:59:44;;;;;;;4.85;2.28;;;;;;;;;;4920388;29;20881;-77
2023/06/06 12:02:12;;;;;;;6.45;2.38;;;;;;;;;;4914798;29;20620;-77
2023/06/06 12:04:46;;;;;;;5.43;2.20;;;;;;;;;;4931865;29;20123;-77
2023/06/06 12:07:12;;;;;;;5.13;2.10;;;;;;;;;;4931542;29;20448;-77
2023/06/06 12:09:37;;;;;;;3.90;2.00;;;;;;;;;;4932942;29;20141;-77
2023/06/06 12:12:04;;;;;;;4.75;2.22;;;;;;;;;;4907461;29;20083;-77
2023/06/06 12:14:32;;;;;;;6.40;2.33;;;;;;;;;;4954687;28;20116;-77
2023/06/06 12:17:05;;;;;;;3.33;1.90;;;;;;;;;;4993720;28;20352;-77
2023/06/06 12:19:30;;;;;;;4.88;2.00;;;;;;;;;;4997054;28;20037;-78
2023/06/06 12:21:56;;;;;;;3.80;1.83;;;;;;;;;;5001996;28;20528;-78
2023/06/06 12:24:26;;;;;;;4.05;2.08;;;;;;;;;;5011832;28;20037;-78
2023/06/06 12:26:55;;;;;;;3.55;2.00;;;;;;;;;;4984066;28;20040;-79
2023/06/06 12:29:30;;;;;;;4.63;2.22;;;;;;;;;;4998584;28;20049;-77
2023/06/06 12:32:17;;;;;;;3.92;2.10;;;;;;;;;;4992730;28;20052;-76
2023/06/06 12:34:50;;;;;;;4.75;2.28;;;;;;;;;;5012856;28;20087;-76
2023/06/06 12:37:16;;;;;;;3.60;2.20;;;;;;;;;;4995715;28;20038;-77
2023/06/06 12:39:45;;;;;;;3.83;2.13;;;;;;;;;;5010719;28;20068;-76
2023/06/06 12:42:15;;;;;;;4.32;2.13;;;;;;;;;;4977603;28;20124;-76
2023/06/06 12:44:41;;;;;;;5.80;2.35;;;;;;;;;;4976652;28;20040;-77
2023/06/06 12:47:07;;;;;;;3.65;2.00;;;;;;;;;;5010202;28;20052;-77
2023/06/06 12:49:36;;;;;;;4.57;2.00;;;;;;;;;;4992809;28;20046;-76
2023/06/06 12:52:04;;;;;;;4.80;2.22;;;;;;;;;;4992144;28;20053;-77
2023/06/06 12:54:29;;;;;;;4.22;2.33;;;;;;;;;;4997457;28;20038;-77
2023/06/06 12:56:55;;;;;;;3.85;2.28;;;;;;;;;;4994885;28;20034;-76
2023/06/06 12:59:21;;;;;;;4.50;2.20;;;;;;;;;;5011592;28;20070;-77
2023/06/06 13:01:47;;;;;;;4.28;2.30;;;;;;;;;;4983591;28;20053;-76
2023/06/06 13:04:13;;;;;;;4.10;2.17;;;;;;;;;;4986933;28;20162;-77
2023/06/06 13:06:41;;;;;;;4.80;2.75;;;;;;;;;;4991071;28;20441;-77
2023/06/06 13:09:06;;;;;;;4.63;2.25;;;;;;;;;;4982547;28;20065;-77
2023/06/06 13:11:33;;;;;;;5.03;2.00;;;;;;;;;;5004030;28;20104;-78
2023/06/06 13:14:01;;;;;;;5.32;2.33;;;;;;;;;;4985827;28;20048;-76
2023/06/06 13:16:27;;;;;;;4.53;2.30;;;;;;;;;;4997794;28;20446;-76
2023/06/06 13:18:54;;;;;;;4.30;2.45;;;;;;;;;;5006731;28;20041;-79
2023/06/06 13:21:19;;;;;;;4.30;2.10;;;;;;;;;;5013384;28;20391;-77
2023/06/06 13:23:45;;;;;;;4.28;2.28;;;;;;;;;;5012966;28;20272;-76
2023/06/06 13:26:12;;;;;;;4.78;2.30;;;;;;;;;;4998011;28;20053;-77
2023/06/06 13:28:37;;;;;;;6.07;2.80;;;;;;;;;;5005225;28;20087;-77
2023/06/06 13:31:04;;;;;;;4.00;2.50;;;;;;;;;;4982846;28;20045;-77
2023/06/06 13:33:29;;;;;;;5.35;2.67;;;;;;;;;;4973712;28;20113;-77
2023/06/06 13:35:54;;;;;;;4.05;2.10;;;;;;;;;;4975930;28;20038;-76
2023/06/06 13:38:22;;;;;;;5.75;2.50;;;;;;;;;;4996010;28;20112;-76
2023/06/06 13:40:48;;;;;;;5.18;2.60;;;;;;;;;;5013331;28;20030;-77
2023/06/06 13:43:16;;;;;;;5.00;2.22;;;;;;;;;;4995210;28;20900;-77
2023/06/06 13:45:42;;;;;;;4.75;2.50;;;;;;;;;;4981993;28;20544;-76
2023/06/06 13:48:07;;;;;;;6.22;2.72;;;;;;;;;;4981654;28;20117;-76
2023/06/06 13:50:34;;;;;;;4.78;2.50;;;;;;;;;;5002195;28;20744;-78
2023/06/06 13:53:00;;;;;;;4.40;2.30;;;;;;;;;;4987518;28;20052;-78
2023/06/06 13:55:26;;;;;;;5.47;2.65;;;;;;;;;;4993345;28;20500;-77
2023/06/06 13:57:52;;;;;;;6.18;2.67;;;;;;;;;;5005760;28;20061;-77
2023/06/06 14:00:19;;;;;;;4.10;2.33;;;;;;;;;;5012122;28;20486;-78
2023/06/06 14:02:45;;;;;;;4.40;2.40;;;;;;;;;;4994870;28;20045;-78
2023/06/06 14:05:11;;;;;;;5.90;2.78;;;;;;;;;;4988868;28;20045;-77
2023/06/06 14:07:36;;;;;;;4.93;2.67;;;;;;;;;;5012482;28;20033;-77
2023/06/06 14:10:02;;;;;;;4.32;2.50;;;;;;;;;;4983298;28;20046;-77
2023/06/06 14:12:28;;;;;;;5.13;2.58;;;;;;;;;;4995360;28;20527;-77
2023/06/06 14:14:54;;;;;;;5.38;2.60;;;;;;;;;;5014082;28;20041;-78
2023/06/06 14:17:19;;;;;;;5.40;2.88;;;;;;;;;;4996989;28;20041;-77
2023/06/06 14:19:50;;;;;;;4.60;2.72;;;;;;;;;;5012180;28;20033;-78
2023/06/06 14:22:29;;;;;;;3.92;2.42;;;;;;;;;;4994296;28;20453;-77
2023/06/06 14:24:56;;;;;;;5.35;2.58;;;;;;;;;;4997268;28;20041;-78
2023/06/06 14:27:22;;;;;;;6.22;2.67;;;;;;;;;;5012607;28;20852;-77
2023/06/06 14:29:48;;;;;;;6.30;2.60;;;;;;;;;;4996936;28;20061;-77
2023/06/06 14:32:15;;;;;;;6.28;2.67;;;;;;;;;;4998156;28;20405;-77
2023/06/06 14:34:42;;;;;;;4.88;2.75;;;;;;;;;;4994278;28;20042;-77
2023/06/06 14:37:11;;;;;;;4.63;2.75;;;;;;;;;;4993992;28;20374;-77
2023/06/06 14:39:37;;;;;;;3.95;2.53;;;;;;;;;;5011080;28;20822;-77
2023/06/06 14:42:04;;;;;;;4.68;2.80;;;;;;;;;;4984737;28;20038;-78
2023/06/06 14:44:35;;;;;;;5.95;2.80;;;;;;;;;;4998566;28;20029;-77
2023/06/06 14:47:01;;;;;;;5.38;2.97;;;;;;;;;;4995558;28;20398;-78